sensor_id;sensor_type;location;lat;lon;timestamp;P1;durP1;ratioP1;P2;durP2;ratioP2
57441;SDS011;43284;47.042;15.498;2023-07-08T00:00:16;7.78;;;3.70;;
57441;SDS011;43284;47.042;15.498;2023-07-08T00:02:43;6.60;;;3.72;;
57441;SDS011;43284;47.042;15.498;2023-07-08T00:05:13;6.55;;;3.72;;
57441;SDS011;43284;47.042;15.498;2023-07-08T00:07:40;10.48;;;4.35;;
57441;SDS011;43284;47.042;15.498;2023-07-08T00:10:23;8.82;;;3.80;;
57441;SDS011;43284;47.042;15.498;2023-07-08T00:12:51;9.30;;;4.22;;
57441;SDS011;43284;47.042;15.498;2023-07-08T00:15:18;9.85;;;3.88;;
57441;SDS011;43284;47.042;15.498;2023-07-08T00:17:46;9.18;;;4.65;;
57441;SDS011;43284;47.042;15.498;2023-07-08T00:22:53;6.47;;;3.60;;
57441;SDS011;43284;47.042;15.498;2023-07-08T00:25:19;12.30;;;3.88;;
57441;SDS011;43284;47.042;15.498;2023-07-08T00:27:45;7.80;;;3.80;;
57441;SDS011;43284;47.042;15.498;2023-07-08T00:30:25;8.30;;;3.83;;
57441;SDS011;43284;47.042;15.498;2023-07-08T00:32:53;8.68;;;4.18;;
57441;SDS011;43284;47.042;15.498;2023-07-08T00:35:20;8.27;;;4.22;;
57441;SDS011;43284;47.042;15.498;2023-07-08T00:51:28;7.50;;;3.92;;
57441;SDS011;43284;47.042;15.498;2023-07-08T00:53:53;7.13;;;3.80;;
57441;SDS011;43284;47.042;15.498;2023-07-08T00:56:20;6.28;;;3.83;;
57441;SDS011;43284;47.042;15.498;2023-07-08T00:59:11;8.60;;;3.90;;
57441;SDS011;43284;47.042;15.498;2023-07-08T01:01:44;7.85;;;4.43;;
57441;SDS011;43284;47.042;15.498;2023-07-08T01:04:14;7.18;;;4.35;;
57441;SDS011;43284;47.042;15.498;2023-07-08T01:07:02;5.53;;;3.58;;
57441;SDS011;43284;47.042;15.498;2023-07-08T01:09:40;8.65;;;4.18;;
57441;SDS011;43284;47.042;15.498;2023-07-08T01:12:11;6.60;;;3.75;;
57441;SDS011;43284;47.042;15.498;2023-07-08T01:14:43;7.60;;;4.15;;
57441;SDS011;43284;47.042;15.498;2023-07-08T01:17:09;10.20;;;3.78;;
57441;SDS011;43284;47.042;15.498;2023-07-08T01:19:42;12.20;;;4.30;;
57441;SDS011;43284;47.042;15.498;2023-07-08T01:22:09;11.55;;;4.00;;
57441;SDS011;43284;47.042;15.498;2023-07-08T01:24:41;8.23;;;3.85;;
57441;SDS011;43284;47.042;15.498;2023-07-08T01:27:10;7.35;;;3.90;;
57441;SDS011;43284;47.042;15.498;2023-07-08T01:29:41;6.93;;;3.70;;
57441;SDS011;43284;47.042;15.498;2023-07-08T01:32:09;8.50;;;4.20;;
57441;SDS011;43284;47.042;15.498;2023-07-08T01:34:39;7.00;;;3.75;;
57441;SDS011;43284;47.042;15.498;2023-07-08T01:37:04;7.30;;;4.07;;
57441;SDS011;43284;47.042;15.498;2023-07-08T01:39:32;9.15;;;4.63;;
57441;SDS011;43284;47.042;15.498;2023-07-08T01:41:58;11.52;;;4.55;;
57441;SDS011;43284;47.042;15.498;2023-07-08T01:49:58;7.93;;;3.80;;
57441;SDS011;43284;47.042;15.498;2023-07-08T01:52:24;8.77;;;4.38;;
57441;SDS011;43284;47.042;15.498;2023-07-08T01:54:54;12.85;;;4.25;;
57441;SDS011;43284;47.042;15.498;2023-07-08T01:57:20;7.60;;;3.80;;
57441;SDS011;43284;47.042;15.498;2023-07-08T01:59:46;11.57;;;4.60;;
57441;SDS011;43284;47.042;15.498;2023-07-08T02:02:12;9.95;;;4.63;;
57441;SDS011;43284;47.042;15.498;2023-07-08T02:04:38;10.20;;;4.93;;
57441;SDS011;43284;47.042;15.498;2023-07-08T02:07:03;12.13;;;4.85;;
57441;SDS011;43284;47.042;15.498;2023-07-08T02:09:29;10.25;;;4.75;;
57441;SDS011;43284;47.042;15.498;2023-07-08T02:11:55;11.23;;;4.80;;
57441;SDS011;43284;47.042;15.498;2023-07-08T02:14:21;7.80;;;4.40;;
57441;SDS011;43284;47.042;15.498;2023-07-08T02:16:47;8.77;;;4.90;;
57441;SDS011;43284;47.042;15.498;2023-07-08T02:19:13;11.00;;;5.45;;
57441;SDS011;43284;47.042;15.498;2023-07-08T02:21:38;7.25;;;4.60;;
57441;SDS011;43284;47.042;15.498;2023-07-08T02:24:04;7.60;;;4.53;;
57441;SDS011;43284;47.042;15.498;2023-07-08T02:26:30;9.13;;;4.65;;
57441;SDS011;43284;47.042;15.498;2023-07-08T02:28:57;13.35;;;4.55;;
57441;SDS011;43284;47.042;15.498;2023-07-08T02:31:23;13.38;;;4.40;;
57441;SDS011;43284;47.042;15.498;2023-07-08T02:33:51;12.02;;;4.68;;
57441;SDS011;43284;47.042;15.498;2023-07-08T02:36:18;8.10;;;4.13;;
57441;SDS011;43284;47.042;15.498;2023-07-08T02:38:43;7.32;;;4.25;;
57441;SDS011;43284;47.042;15.498;2023-07-08T02:41:09;7.68;;;4.07;;
57441;SDS011;43284;47.042;15.498;2023-07-08T02:43:36;11.70;;;4.50;;
57441;SDS011;43284;47.042;15.498;2023-07-08T02:46:02;9.63;;;4.88;;
57441;SDS011;43284;47.042;15.498;2023-07-08T02:48:28;9.45;;;5.07;;
57441;SDS011;43284;47.042;15.498;2023-07-08T02:50:58;10.35;;;4.40;;
57441;SDS011;43284;47.042;15.498;2023-07-08T02:55:53;8.63;;;4.68;;
57441;SDS011;43284;47.042;15.498;2023-07-08T02:58:18;9.15;;;4.75;;
57441;SDS011;43284;47.042;15.498;2023-07-08T03:00:43;10.75;;;4.60;;
57441;SDS011;43284;47.042;15.498;2023-07-08T03:03:09;8.23;;;4.82;;
57441;SDS011;43284;47.042;15.498;2023-07-08T03:05:34;9.82;;;4.68;;
57441;SDS011;43284;47.042;15.498;2023-07-08T03:08:01;8.60;;;4.03;;
57441;SDS011;43284;47.042;15.498;2023-07-08T03:10:27;11.27;;;4.88;;
57441;SDS011;43284;47.042;15.498;2023-07-08T03:12:52;9.13;;;4.95;;
57441;SDS011;43284;47.042;15.498;2023-07-08T03:15:18;9.60;;;4.65;;
57441;SDS011;43284;47.042;15.498;2023-07-08T03:17:43;9.20;;;4.53;;
57441;SDS011;43284;47.042;15.498;2023-07-08T03:20:09;8.05;;;4.47;;
57441;SDS011;43284;47.042;15.498;2023-07-08T03:22:36;11.55;;;4.80;;
57441;SDS011;43284;47.042;15.498;2023-07-08T03:25:02;10.55;;;5.43;;
57441;SDS011;43284;47.042;15.498;2023-07-08T03:27:28;8.68;;;4.85;;
57441;SDS011;43284;47.042;15.498;2023-07-08T03:29:54;8.45;;;4.60;;
57441;SDS011;43284;47.042;15.498;2023-07-08T03:32:19;13.63;;;4.45;;
57441;SDS011;43284;47.042;15.498;2023-07-08T03:34:45;8.60;;;5.00;;
57441;SDS011;43284;47.042;15.498;2023-07-08T03:37:10;10.52;;;4.35;;
57441;SDS011;43284;47.042;15.498;2023-07-08T03:39:36;10.98;;;4.72;;
57441;SDS011;43284;47.042;15.498;2023-07-08T03:44:37;8.90;;;4.13;;
57441;SDS011;43284;47.042;15.498;2023-07-08T03:47:03;9.65;;;4.63;;
57441;SDS011;43284;47.042;15.498;2023-07-08T03:49:29;10.52;;;4.32;;
57441;SDS011;43284;47.042;15.498;2023-07-08T03:51:54;10.32;;;5.03;;
57441;SDS011;43284;47.042;15.498;2023-07-08T03:54:22;8.73;;;5.03;;
57441;SDS011;43284;47.042;15.498;2023-07-08T03:56:51;9.98;;;4.25;;
57441;SDS011;43284;47.042;15.498;2023-07-08T03:59:17;11.23;;;4.82;;
57441;SDS011;43284;47.042;15.498;2023-07-08T04:01:44;12.10;;;4.80;;
57441;SDS011;43284;47.042;15.498;2023-07-08T04:04:11;8.05;;;4.57;;
57441;SDS011;43284;47.042;15.498;2023-07-08T04:06:39;10.88;;;5.63;;
57441;SDS011;43284;47.042;15.498;2023-07-08T04:09:05;11.35;;;4.72;;
57441;SDS011;43284;47.042;15.498;2023-07-08T04:11:32;11.40;;;4.57;;
57441;SDS011;43284;47.042;15.498;2023-07-08T04:13:57;9.95;;;4.70;;
57441;SDS011;43284;47.042;15.498;2023-07-08T04:16:28;9.98;;;4.80;;
57441;SDS011;43284;47.042;15.498;2023-07-08T04:18:57;8.43;;;5.07;;
57441;SDS011;43284;47.042;15.498;2023-07-08T04:21:25;8.13;;;4.25;;
57441;SDS011;43284;47.042;15.498;2023-07-08T04:23:51;9.68;;;4.95;;
57441;SDS011;43284;47.042;15.498;2023-07-08T04:26:19;8.95;;;4.82;;
57441;SDS011;43284;47.042;15.498;2023-07-08T04:28:45;9.55;;;4.40;;
57441;SDS011;43284;47.042;15.498;2023-07-08T04:31:11;11.40;;;5.22;;
57441;SDS011;43284;47.042;15.498;2023-07-08T04:33:38;11.63;;;5.50;;
57441;SDS011;43284;47.042;15.498;2023-07-08T04:36:03;12.55;;;5.18;;
57441;SDS011;43284;47.042;15.498;2023-07-08T04:38:36;13.75;;;5.72;;
57441;SDS011;43284;47.042;15.498;2023-07-08T04:41:01;13.50;;;5.40;;
57441;SDS011;43284;47.042;15.498;2023-07-08T04:43:30;12.90;;;5.93;;
57441;SDS011;43284;47.042;15.498;2023-07-08T04:45:56;11.05;;;5.90;;
57441;SDS011;43284;47.042;15.498;2023-07-08T04:48:22;12.05;;;6.00;;
57441;SDS011;43284;47.042;15.498;2023-07-08T04:50:50;13.52;;;6.55;;
57441;SDS011;43284;47.042;15.498;2023-07-08T04:53:17;22.35;;;7.40;;
57441;SDS011;43284;47.042;15.498;2023-07-08T04:55:47;13.80;;;6.45;;
57441;SDS011;43284;47.042;15.498;2023-07-08T04:58:17;13.38;;;5.97;;
57441;SDS011;43284;47.042;15.498;2023-07-08T05:00:43;12.32;;;5.90;;
57441;SDS011;43284;47.042;15.498;2023-07-08T05:03:09;10.48;;;6.13;;
57441;SDS011;43284;47.042;15.498;2023-07-08T05:05:37;15.63;;;6.93;;
57441;SDS011;43284;47.042;15.498;2023-07-08T05:08:03;15.25;;;6.57;;
57441;SDS011;43284;47.042;15.498;2023-07-08T05:10:30;13.48;;;6.60;;
57441;SDS011;43284;47.042;15.498;2023-07-08T05:12:55;12.63;;;6.03;;
57441;SDS011;43284;47.042;15.498;2023-07-08T05:15:21;13.88;;;6.40;;
57441;SDS011;43284;47.042;15.498;2023-07-08T05:17:47;14.20;;;6.60;;
57441;SDS011;43284;47.042;15.498;2023-07-08T05:20:15;14.30;;;7.25;;
57441;SDS011;43284;47.042;15.498;2023-07-08T05:22:43;14.73;;;6.97;;
57441;SDS011;43284;47.042;15.498;2023-07-08T05:25:10;14.13;;;7.47;;
57441;SDS011;43284;47.042;15.498;2023-07-08T05:27:39;12.85;;;6.55;;
57441;SDS011;43284;47.042;15.498;2023-07-08T05:30:06;14.65;;;6.55;;
57441;SDS011;43284;47.042;15.498;2023-07-08T05:32:32;14.45;;;6.95;;
57441;SDS011;43284;47.042;15.498;2023-07-08T05:34:58;10.48;;;6.43;;
57441;SDS011;43284;47.042;15.498;2023-07-08T05:37:27;14.13;;;6.45;;
57441;SDS011;43284;47.042;15.498;2023-07-08T05:39:55;17.63;;;6.60;;
57441;SDS011;43284;47.042;15.498;2023-07-08T05:42:21;13.20;;;6.50;;
57441;SDS011;43284;47.042;15.498;2023-07-08T05:44:47;13.98;;;5.68;;
57441;SDS011;43284;47.042;15.498;2023-07-08T05:47:17;13.35;;;6.65;;
57441;SDS011;43284;47.042;15.498;2023-07-08T05:49:42;12.13;;;5.70;;
57441;SDS011;43284;47.042;15.498;2023-07-08T05:52:08;11.10;;;5.63;;
57441;SDS011;43284;47.042;15.498;2023-07-08T05:54:39;11.77;;;6.13;;
57441;SDS011;43284;47.042;15.498;2023-07-08T05:57:06;11.00;;;5.85;;
57441;SDS011;43284;47.042;15.498;2023-07-08T05:59:34;12.23;;;5.15;;
57441;SDS011;43284;47.042;15.498;2023-07-08T06:02:01;12.85;;;5.10;;
57441;SDS011;43284;47.042;15.498;2023-07-08T06:04:27;9.55;;;5.05;;
57441;SDS011;43284;47.042;15.498;2023-07-08T06:06:53;7.50;;;4.18;;
57441;SDS011;43284;47.042;15.498;2023-07-08T06:09:19;10.60;;;5.28;;
57441;SDS011;43284;47.042;15.498;2023-07-08T06:11:44;12.25;;;5.13;;
57441;SDS011;43284;47.042;15.498;2023-07-08T06:14:10;9.93;;;4.93;;
57441;SDS011;43284;47.042;15.498;2023-07-08T06:16:35;12.68;;;4.60;;
57441;SDS011;43284;47.042;15.498;2023-07-08T06:19:01;8.40;;;4.53;;
57441;SDS011;43284;47.042;15.498;2023-07-08T06:21:26;10.05;;;5.10;;
57441;SDS011;43284;47.042;15.498;2023-07-08T06:23:52;13.30;;;5.20;;
57441;SDS011;43284;47.042;15.498;2023-07-08T06:26:17;7.75;;;4.28;;
57441;SDS011;43284;47.042;15.498;2023-07-08T06:28:43;7.80;;;4.43;;
57441;SDS011;43284;47.042;15.498;2023-07-08T06:31:08;9.75;;;5.05;;
57441;SDS011;43284;47.042;15.498;2023-07-08T06:33:34;7.78;;;4.53;;
57441;SDS011;43284;47.042;15.498;2023-07-08T06:35:59;10.48;;;4.55;;
57441;SDS011;43284;47.042;15.498;2023-07-08T06:38:25;8.60;;;5.20;;
57441;SDS011;43284;47.042;15.498;2023-07-08T06:40:50;10.88;;;4.43;;
57441;SDS011;43284;47.042;15.498;2023-07-08T06:43:16;11.82;;;5.32;;
57441;SDS011;43284;47.042;15.498;2023-07-08T06:45:42;10.70;;;4.72;;
57441;SDS011;43284;47.042;15.498;2023-07-08T06:48:08;9.23;;;5.38;;
57441;SDS011;43284;47.042;15.498;2023-07-08T06:50:34;10.52;;;5.10;;
57441;SDS011;43284;47.042;15.498;2023-07-08T06:53:00;10.27;;;5.38;;
57441;SDS011;43284;47.042;15.498;2023-07-08T06:55:25;10.82;;;5.75;;
57441;SDS011;43284;47.042;15.498;2023-07-08T06:57:51;13.25;;;5.95;;
57441;SDS011;43284;47.042;15.498;2023-07-08T07:00:17;10.00;;;5.50;;
57441;SDS011;43284;47.042;15.498;2023-07-08T07:02:43;10.98;;;5.53;;
57441;SDS011;43284;47.042;15.498;2023-07-08T07:05:08;10.63;;;6.25;;
57441;SDS011;43284;47.042;15.498;2023-07-08T07:07:34;11.85;;;5.15;;
57441;SDS011;43284;47.042;15.498;2023-07-08T07:09:59;9.10;;;5.30;;
57441;SDS011;43284;47.042;15.498;2023-07-08T07:12:25;11.15;;;5.55;;
57441;SDS011;43284;47.042;15.498;2023-07-08T07:14:52;10.13;;;5.50;;
57441;SDS011;43284;47.042;15.498;2023-07-08T07:17:21;10.98;;;4.80;;
57441;SDS011;43284;47.042;15.498;2023-07-08T07:19:48;8.27;;;4.90;;
57441;SDS011;43284;47.042;15.498;2023-07-08T07:22:14;10.38;;;5.53;;
57441;SDS011;43284;47.042;15.498;2023-07-08T07:24:40;12.27;;;5.97;;
57441;SDS011;43284;47.042;15.498;2023-07-08T07:27:06;10.63;;;5.07;;
57441;SDS011;43284;47.042;15.498;2023-07-08T07:29:46;8.75;;;4.50;;
57441;SDS011;43284;47.042;15.498;2023-07-08T07:32:14;9.13;;;5.50;;
57441;SDS011;43284;47.042;15.498;2023-07-08T07:34:40;8.32;;;4.93;;
57441;SDS011;43284;47.042;15.498;2023-07-08T07:37:06;10.00;;;4.53;;
57441;SDS011;43284;47.042;15.498;2023-07-08T07:39:36;10.40;;;4.80;;
57441;SDS011;43284;47.042;15.498;2023-07-08T07:42:01;10.65;;;5.57;;
57441;SDS011;43284;47.042;15.498;2023-07-08T07:44:27;9.73;;;5.07;;
57441;SDS011;43284;47.042;15.498;2023-07-08T07:46:53;8.60;;;4.60;;
57441;SDS011;43284;47.042;15.498;2023-07-08T07:49:19;11.70;;;5.30;;
57441;SDS011;43284;47.042;15.498;2023-07-08T07:51:45;8.05;;;4.22;;
57441;SDS011;43284;47.042;15.498;2023-07-08T07:54:11;11.55;;;4.82;;
57441;SDS011;43284;47.042;15.498;2023-07-08T07:56:36;11.23;;;4.60;;
57441;SDS011;43284;47.042;15.498;2023-07-08T07:59:02;11.40;;;5.40;;
57441;SDS011;43284;47.042;15.498;2023-07-08T08:01:28;6.55;;;4.00;;
57441;SDS011;43284;47.042;15.498;2023-07-08T08:03:54;7.15;;;3.80;;
57441;SDS011;43284;47.042;15.498;2023-07-08T08:06:19;12.30;;;4.05;;
57441;SDS011;43284;47.042;15.498;2023-07-08T08:08:45;7.30;;;3.95;;
57441;SDS011;43284;47.042;15.498;2023-07-08T08:11:11;7.07;;;3.70;;
57441;SDS011;43284;47.042;15.498;2023-07-08T08:13:37;7.78;;;3.92;;
57441;SDS011;43284;47.042;15.498;2023-07-08T08:16:02;9.27;;;4.75;;
57441;SDS011;43284;47.042;15.498;2023-07-08T08:18:29;8.45;;;3.80;;
57441;SDS011;43284;47.042;15.498;2023-07-08T08:20:54;9.30;;;4.53;;
57441;SDS011;43284;47.042;15.498;2023-07-08T08:23:20;6.90;;;3.15;;
57441;SDS011;43284;47.042;15.498;2023-07-08T08:25:46;11.40;;;4.70;;
57441;SDS011;43284;47.042;15.498;2023-07-08T08:28:11;7.93;;;3.95;;
57441;SDS011;43284;47.042;15.498;2023-07-08T08:30:37;7.80;;;3.40;;
57441;SDS011;43284;47.042;15.498;2023-07-08T08:33:02;5.28;;;3.22;;
57441;SDS011;43284;47.042;15.498;2023-07-08T08:35:28;8.32;;;3.92;;
57441;SDS011;43284;47.042;15.498;2023-07-08T08:37:54;6.70;;;3.38;;
57441;SDS011;43284;47.042;15.498;2023-07-08T08:40:19;7.10;;;3.70;;
57441;SDS011;43284;47.042;15.498;2023-07-08T08:42:46;5.60;;;2.80;;
57441;SDS011;43284;47.042;15.498;2023-07-08T08:45:18;5.78;;;2.75;;
57441;SDS011;43284;47.042;15.498;2023-07-08T08:47:47;10.43;;;4.65;;
57441;SDS011;43284;47.042;15.498;2023-07-08T08:52:53;7.53;;;3.03;;
57441;SDS011;43284;47.042;15.498;2023-07-08T08:55:20;8.18;;;3.42;;
57441;SDS011;43284;47.042;15.498;2023-07-08T09:03:09;7.10;;;3.60;;
57441;SDS011;43284;47.042;15.498;2023-07-08T09:05:41;6.60;;;3.78;;
57441;SDS011;43284;47.042;15.498;2023-07-08T09:08:17;7.90;;;3.33;;
57441;SDS011;43284;47.042;15.498;2023-07-08T09:13:59;7.88;;;3.50;;
57441;SDS011;43284;47.042;15.498;2023-07-08T09:16:43;6.25;;;3.05;;
57441;SDS011;43284;47.042;15.498;2023-07-08T09:19:22;5.47;;;3.33;;
57441;SDS011;43284;47.042;15.498;2023-07-08T09:25:05;5.25;;;2.80;;
57441;SDS011;43284;47.042;15.498;2023-07-08T09:27:45;5.38;;;3.13;;
57441;SDS011;43284;47.042;15.498;2023-07-08T09:30:15;6.90;;;3.22;;
57441;SDS011;43284;47.042;15.498;2023-07-08T09:32:42;8.63;;;3.30;;
57441;SDS011;43284;47.042;15.498;2023-07-08T09:35:08;5.45;;;3.17;;
57441;SDS011;43284;47.042;15.498;2023-07-08T09:37:44;5.50;;;3.28;;
57441;SDS011;43284;47.042;15.498;2023-07-08T09:42:49;7.80;;;3.08;;
57441;SDS011;43284;47.042;15.498;2023-07-08T09:45:18;6.68;;;3.42;;
57441;SDS011;43284;47.042;15.498;2023-07-08T09:47:46;7.38;;;3.05;;
57441;SDS011;43284;47.042;15.498;2023-07-08T09:50:23;5.82;;;3.30;;
57441;SDS011;43284;47.042;15.498;2023-07-08T09:52:55;6.97;;;3.67;;
57441;SDS011;43284;47.042;15.498;2023-07-08T09:55:30;11.35;;;4.00;;
57441;SDS011;43284;47.042;15.498;2023-07-08T09:57:56;5.45;;;3.35;;
57441;SDS011;43284;47.042;15.498;2023-07-08T10:00:30;7.43;;;3.15;;
57441;SDS011;43284;47.042;15.498;2023-07-08T10:03:03;5.57;;;2.80;;
57441;SDS011;43284;47.042;15.498;2023-07-08T10:05:38;5.53;;;3.38;;
57441;SDS011;43284;47.042;15.498;2023-07-08T10:08:40;5.80;;;3.38;;
57441;SDS011;43284;47.042;15.498;2023-07-08T10:13:40;6.55;;;3.20;;
57441;SDS011;43284;47.042;15.498;2023-07-08T10:16:42;7.13;;;3.35;;
57441;SDS011;43284;47.042;15.498;2023-07-08T10:19:00;6.07;;;3.15;;
57441;SDS011;43284;47.042;15.498;2023-07-08T10:27:11;9.77;;;4.28;;
57441;SDS011;43284;47.042;15.498;2023-07-08T10:40:59;8.88;;;3.58;;
57441;SDS011;43284;47.042;15.498;2023-07-08T10:51:19;5.72;;;3.33;;
57441;SDS011;43284;47.042;15.498;2023-07-08T11:08:11;6.80;;;3.70;;
57441;SDS011;43284;47.042;15.498;2023-07-08T11:10:52;7.32;;;3.50;;
57441;SDS011;43284;47.042;15.498;2023-07-08T11:13:26;8.52;;;3.90;;
57441;SDS011;43284;47.042;15.498;2023-07-08T11:16:02;6.47;;;3.83;;
57441;SDS011;43284;47.042;15.498;2023-07-08T11:18:42;7.65;;;3.60;;
57441;SDS011;43284;47.042;15.498;2023-07-08T11:24:00;7.55;;;3.60;;
57441;SDS011;43284;47.042;15.498;2023-07-08T11:26:37;6.55;;;3.58;;
57441;SDS011;43284;47.042;15.498;2023-07-08T11:29:18;6.70;;;3.65;;
57441;SDS011;43284;47.042;15.498;2023-07-08T11:31:50;7.35;;;3.50;;
57441;SDS011;43284;47.042;15.498;2023-07-08T11:34:19;8.18;;;3.53;;
57441;SDS011;43284;47.042;15.498;2023-07-08T11:36:46;6.78;;;3.75;;
57441;SDS011;43284;47.042;15.498;2023-07-08T11:42:25;6.47;;;3.55;;
57441;SDS011;43284;47.042;15.498;2023-07-08T11:47:48;8.93;;;3.55;;
57441;SDS011;43284;47.042;15.498;2023-07-08T11:50:36;6.53;;;3.58;;
57441;SDS011;43284;47.042;15.498;2023-07-08T11:53:09;7.20;;;3.63;;
57441;SDS011;43284;47.042;15.498;2023-07-08T11:55:38;6.80;;;3.40;;
57441;SDS011;43284;47.042;15.498;2023-07-08T11:58:21;8.88;;;3.95;;
57441;SDS011;43284;47.042;15.498;2023-07-08T12:01:32;6.32;;;3.28;;
57441;SDS011;43284;47.042;15.498;2023-07-08T12:03:38;7.47;;;3.53;;
57441;SDS011;43284;47.042;15.498;2023-07-08T12:08:53;15.52;;;4.50;;
57441;SDS011;43284;47.042;15.498;2023-07-08T12:11:23;7.30;;;4.15;;
57441;SDS011;43284;47.042;15.498;2023-07-08T12:13:52;6.17;;;3.27;;
57441;SDS011;43284;47.042;15.498;2023-07-08T12:16:21;9.23;;;4.10;;
57441;SDS011;43284;47.042;15.498;2023-07-08T12:18:46;6.72;;;3.95;;
57441;SDS011;43284;47.042;15.498;2023-07-08T12:21:14;7.65;;;3.20;;
57441;SDS011;43284;47.042;15.498;2023-07-08T12:23:46;6.30;;;3.50;;
57441;SDS011;43284;47.042;15.498;2023-07-08T12:26:13;7.15;;;3.90;;
57441;SDS011;43284;47.042;15.498;2023-07-08T12:28:39;6.88;;;3.58;;
57441;SDS011;43284;47.042;15.498;2023-07-08T12:31:15;6.05;;;3.33;;
57441;SDS011;43284;47.042;15.498;2023-07-08T12:33:43;6.22;;;3.30;;
57441;SDS011;43284;47.042;15.498;2023-07-08T12:36:09;7.72;;;3.67;;
57441;SDS011;43284;47.042;15.498;2023-07-08T12:38:40;6.78;;;3.60;;
57441;SDS011;43284;47.042;15.498;2023-07-08T12:41:10;5.78;;;3.28;;
57441;SDS011;43284;47.042;15.498;2023-07-08T12:43:37;6.40;;;3.17;;
57441;SDS011;43284;47.042;15.498;2023-07-08T12:46:03;4.97;;;3.28;;
57441;SDS011;43284;47.042;15.498;2023-07-08T12:48:38;7.82;;;3.60;;
57441;SDS011;43284;47.042;15.498;2023-07-08T12:51:06;6.55;;;3.60;;
57441;SDS011;43284;47.042;15.498;2023-07-08T12:53:38;5.78;;;3.05;;
57441;SDS011;43284;47.042;15.498;2023-07-08T12:56:05;6.45;;;3.10;;
57441;SDS011;43284;47.042;15.498;2023-07-08T12:58:32;7.35;;;2.97;;
57441;SDS011;43284;47.042;15.498;2023-07-08T13:01:02;5.10;;;3.30;;
57441;SDS011;43284;47.042;15.498;2023-07-08T13:03:31;6.43;;;3.33;;
57441;SDS011;43284;47.042;15.498;2023-07-08T13:06:02;5.47;;;3.58;;
57441;SDS011;43284;47.042;15.498;2023-07-08T13:08:29;7.07;;;3.17;;
57441;SDS011;43284;47.042;15.498;2023-07-08T13:10:59;4.40;;;2.97;;
57441;SDS011;43284;47.042;15.498;2023-07-08T13:13:30;6.95;;;3.95;;
57441;SDS011;43284;47.042;15.498;2023-07-08T13:15:58;5.40;;;3.38;;
57441;SDS011;43284;47.042;15.498;2023-07-08T13:18:32;7.10;;;3.35;;
57441;SDS011;43284;47.042;15.498;2023-07-08T13:21:00;4.47;;;3.22;;
57441;SDS011;43284;47.042;15.498;2023-07-08T13:23:26;6.43;;;3.80;;
57441;SDS011;43284;47.042;15.498;2023-07-08T13:25:53;5.97;;;3.25;;
57441;SDS011;43284;47.042;15.498;2023-07-08T13:28:23;8.77;;;4.22;;
57441;SDS011;43284;47.042;15.498;2023-07-08T13:30:56;5.57;;;3.70;;
57441;SDS011;43284;47.042;15.498;2023-07-08T13:33:24;6.32;;;3.67;;
57441;SDS011;43284;47.042;15.498;2023-07-08T13:35:58;5.68;;;3.40;;
57441;SDS011;43284;47.042;15.498;2023-07-08T13:38:30;6.90;;;3.78;;
57441;SDS011;43284;47.042;15.498;2023-07-08T13:40:59;5.68;;;3.53;;
57441;SDS011;43284;47.042;15.498;2023-07-08T13:43:28;6.82;;;3.42;;
57441;SDS011;43284;47.042;15.498;2023-07-08T13:45:56;6.00;;;3.10;;
57441;SDS011;43284;47.042;15.498;2023-07-08T13:51:10;9.98;;;4.15;;
57441;SDS011;43284;47.042;15.498;2023-07-08T13:56:21;6.05;;;3.13;;
57441;SDS011;43284;47.042;15.498;2023-07-08T13:58:50;5.70;;;3.20;;
57441;SDS011;43284;47.042;15.498;2023-07-08T14:01:21;6.85;;;3.72;;
57441;SDS011;43284;47.042;15.498;2023-07-08T14:03:50;9.85;;;3.60;;
57441;SDS011;43284;47.042;15.498;2023-07-08T14:06:29;5.32;;;3.72;;
57441;SDS011;43284;47.042;15.498;2023-07-08T14:09:03;7.25;;;3.40;;
57441;SDS011;43284;47.042;15.498;2023-07-08T14:11:36;6.20;;;3.30;;
57441;SDS011;43284;47.042;15.498;2023-07-08T14:14:01;6.28;;;3.55;;
57441;SDS011;43284;47.042;15.498;2023-07-08T14:16:28;6.88;;;3.47;;
57441;SDS011;43284;47.042;15.498;2023-07-08T14:18:56;6.78;;;4.25;;
57441;SDS011;43284;47.042;15.498;2023-07-08T14:21:22;7.28;;;2.92;;
57441;SDS011;43284;47.042;15.498;2023-07-08T14:23:48;9.32;;;3.83;;
57441;SDS011;43284;47.042;15.498;2023-07-08T14:26:13;6.68;;;4.13;;
57441;SDS011;43284;47.042;15.498;2023-07-08T14:28:39;9.57;;;3.75;;
57441;SDS011;43284;47.042;15.498;2023-07-08T14:31:09;6.30;;;3.30;;
57441;SDS011;43284;47.042;15.498;2023-07-08T14:33:35;5.95;;;3.85;;
57441;SDS011;43284;47.042;15.498;2023-07-08T14:36:01;5.20;;;3.25;;
57441;SDS011;43284;47.042;15.498;2023-07-08T14:38:26;6.00;;;3.75;;
57441;SDS011;43284;47.042;15.498;2023-07-08T14:40:52;6.32;;;3.58;;
57441;SDS011;43284;47.042;15.498;2023-07-08T14:45:48;6.72;;;3.72;;
57441;SDS011;43284;47.042;15.498;2023-07-08T14:48:16;6.03;;;3.35;;
57441;SDS011;43284;47.042;15.498;2023-07-08T14:50:41;5.72;;;3.40;;
57441;SDS011;43284;47.042;15.498;2023-07-08T14:53:07;5.63;;;3.47;;
57441;SDS011;43284;47.042;15.498;2023-07-08T14:55:33;6.10;;;4.15;;
57441;SDS011;43284;47.042;15.498;2023-07-08T14:58:00;9.02;;;3.83;;
57441;SDS011;43284;47.042;15.498;2023-07-08T15:00:28;7.63;;;3.70;;
57441;SDS011;43284;47.042;15.498;2023-07-08T15:02:54;6.53;;;3.67;;
57441;SDS011;43284;47.042;15.498;2023-07-08T15:05:21;6.80;;;3.70;;
57441;SDS011;43284;47.042;15.498;2023-07-08T15:07:53;5.43;;;3.40;;
57441;SDS011;43284;47.042;15.498;2023-07-08T15:10:24;6.60;;;3.40;;
57441;SDS011;43284;47.042;15.498;2023-07-08T15:12:52;7.40;;;3.50;;
57441;SDS011;43284;47.042;15.498;2023-07-08T15:17:55;5.90;;;3.90;;
57441;SDS011;43284;47.042;15.498;2023-07-08T15:20:26;5.68;;;3.40;;
57441;SDS011;43284;47.042;15.498;2023-07-08T15:22:51;6.40;;;3.83;;
57441;SDS011;43284;47.042;15.498;2023-07-08T15:25:17;6.43;;;3.78;;
57441;SDS011;43284;47.042;15.498;2023-07-08T15:27:48;6.38;;;3.40;;
57441;SDS011;43284;47.042;15.498;2023-07-08T15:32:44;5.35;;;3.30;;
57441;SDS011;43284;47.042;15.498;2023-07-08T15:35:14;6.22;;;3.50;;
57441;SDS011;43284;47.042;15.498;2023-07-08T15:38:00;7.15;;;4.00;;
57441;SDS011;43284;47.042;15.498;2023-07-08T15:40:30;7.40;;;4.25;;
57441;SDS011;43284;47.042;15.498;2023-07-08T15:42:59;6.97;;;3.78;;
57441;SDS011;43284;47.042;15.498;2023-07-08T15:45:28;5.20;;;3.20;;
57441;SDS011;43284;47.042;15.498;2023-07-08T15:47:57;7.13;;;3.65;;
57441;SDS011;43284;47.042;15.498;2023-07-08T15:50:24;6.63;;;3.53;;
57441;SDS011;43284;47.042;15.498;2023-07-08T15:52:53;8.48;;;3.97;;
57441;SDS011;43284;47.042;15.498;2023-07-08T15:55:20;5.80;;;3.70;;
57441;SDS011;43284;47.042;15.498;2023-07-08T15:57:52;6.40;;;3.78;;
57441;SDS011;43284;47.042;15.498;2023-07-08T16:00:33;6.43;;;4.13;;
57441;SDS011;43284;47.042;15.498;2023-07-08T16:03:06;5.38;;;3.42;;
57441;SDS011;43284;47.042;15.498;2023-07-08T16:05:34;8.43;;;4.07;;
57441;SDS011;43284;47.042;15.498;2023-07-08T16:08:01;5.70;;;3.40;;
57441;SDS011;43284;47.042;15.498;2023-07-08T16:10:30;6.35;;;3.03;;
57441;SDS011;43284;47.042;15.498;2023-07-08T16:12:57;5.57;;;3.55;;
57441;SDS011;43284;47.042;15.498;2023-07-08T16:15:28;7.07;;;3.28;;
57441;SDS011;43284;47.042;15.498;2023-07-08T16:17:56;5.33;;;3.30;;
57441;SDS011;43284;47.042;15.498;2023-07-08T16:20:23;6.63;;;3.70;;
57441;SDS011;43284;47.042;15.498;2023-07-08T16:22:51;5.65;;;3.17;;
57441;SDS011;43284;47.042;15.498;2023-07-08T16:25:18;6.80;;;3.45;;
57441;SDS011;43284;47.042;15.498;2023-07-08T16:30:19;4.28;;;3.00;;